Time;durP1;ratioP1;P1;durP2;ratioP2;P2;SDS_P1;SDS_P2;PMS_P1;PMS_P2;Temp;Humidity;BMP_temperature;BMP_pressure;BME280_temperature;BME280_humidity;BME280_pressure;Samples;Min_cycle;Max_cycle;Signal;HPM_P1;HPM_P2
2023/06/03 00:01:47;;;;;;;28.15;17.08;;;16.60;99.90;;;;;;5076400;28;20206;-91
2023/06/03 00:04:21;;;;;;;23.98;15.63;;;16.70;99.90;;;;;;5073653;28;20196;-91
2023/06/03 00:06:57;;;;;;;25.40;15.63;;;16.70;99.90;;;;;;5075331;28;20284;-91
2023/06/03 00:09:30;;;;;;;26.17;16.15;;;16.70;99.90;;;;;;5075620;28;20199;-91
2023/06/03 00:12:04;;;;;;;22.67;15.07;;;16.60;99.90;;;;;;5054119;28;20614;-91
2023/06/03 00:14:37;;;;;;;23.75;14.27;;;16.70;99.90;;;;;;5054670;28;20563;-90
2023/06/03 00:17:11;;;;;;;22.77;13.48;;;16.70;99.90;;;;;;5054881;28;20196;-90
2023/06/03 00:19:45;;;;;;;23.45;15.13;;;16.80;99.90;;;;;;5064681;28;20606;-91
2023/06/03 00:22:21;;;;;;;21.30;13.68;;;17.00;99.90;;;;;;5073930;28;20706;-91
2023/06/03 00:24:53;;;;;;;21.38;13.60;;;17.10;99.90;;;;;;5074925;28;20591;-90
2023/06/03 00:27:27;;;;;;;19.10;13.27;;;17.00;99.90;;;;;;5074405;28;20204;-90
2023/06/03 00:30:00;;;;;;;17.95;11.82;;;17.10;99.90;;;;;;5074534;28;20604;-91
2023/06/03 00:32:32;;;;;;;19.50;12.88;;;17.20;99.90;;;;;;5075163;28;20239;-91
2023/06/03 00:35:04;;;;;;;15.10;11.23;;;17.30;99.90;;;;;;5076100;28;20206;-91
2023/06/03 00:37:44;;;;;;;15.85;11.63;;;17.40;99.90;;;;;;5076650;28;20206;-90
2023/06/03 00:40:17;;;;;;;16.17;10.73;;;17.50;99.90;;;;;;5076136;28;20212;-91
2023/06/03 00:42:49;;;;;;;18.27;10.48;;;17.60;99.90;;;;;;5075319;28;20196;-90
2023/06/03 00:45:22;;;;;;;16.92;10.73;;;17.70;99.90;;;;;;5075651;28;20204;-90
2023/06/03 00:47:54;;;;;;;16.70;10.60;;;17.80;99.90;;;;;;5076233;28;20211;-90
2023/06/03 00:53:14;;;;;;;13.15;9.27;;;18.00;99.90;;;;;;5075520;28;20255;-90
2023/06/03 00:55:46;;;;;;;15.35;9.68;;;18.10;99.90;;;;;;5076290;28;20203;-90
2023/06/03 00:58:19;;;;;;;11.88;9.25;;;18.20;99.90;;;;;;5080962;28;20196;-90
2023/06/03 01:00:52;;;;;;;11.27;8.70;;;18.20;99.90;;;;;;5079060;28;20210;-90
2023/06/03 01:03:23;;;;;;;15.52;9.70;;;18.30;99.90;;;;;;5077009;28;20196;-90
2023/06/03 01:06:04;;;;;;;12.63;9.10;;;18.30;99.90;;;;;;5074816;28;20548;-91
2023/06/03 01:08:45;;;;;;;11.77;8.43;;;18.20;99.90;;;;;;5074755;28;20721;-90
2023/06/03 01:11:22;;;;;;;13.45;8.82;;;18.30;99.90;;;;;;5074618;28;20199;-90
2023/06/03 01:13:59;;;;;;;13.55;9.02;;;18.30;99.90;;;;;;5075516;28;20227;-89
2023/06/03 01:16:34;;;;;;;11.27;8.55;;;18.40;99.90;;;;;;5090767;28;20226;-89
2023/06/03 01:19:09;;;;;;;13.38;8.80;;;18.60;99.90;;;;;;5074368;28;20681;-91
2023/06/03 01:21:44;;;;;;;12.63;9.95;;;18.70;99.90;;;;;;5073695;28;20256;-91
2023/06/03 01:24:24;;;;;;;12.85;8.82;;;18.70;99.90;;;;;;5075024;28;20211;-91
2023/06/03 01:26:57;;;;;;;14.55;9.57;;;18.60;99.90;;;;;;5073323;28;20203;-90
2023/06/03 01:29:31;;;;;;;18.73;9.77;;;18.60;99.90;;;;;;5074203;28;20679;-90
2023/06/03 01:32:05;;;;;;;12.70;9.05;;;18.70;99.90;;;;;;5073179;28;20207;-91
2023/06/03 01:34:38;;;;;;;13.45;8.48;;;18.70;99.90;;;;;;5073383;28;20312;-91
2023/06/03 01:37:11;;;;;;;13.50;9.75;;;18.80;99.90;;;;;;5076328;28;20202;-91
2023/06/03 01:39:47;;;;;;;13.43;9.80;;;19.00;99.90;;;;;;5074584;28;20200;-92
2023/06/03 01:42:20;;;;;;;13.70;9.05;;;19.00;99.90;;;;;;5073943;28;20199;-90
2023/06/03 01:44:52;;;;;;;16.02;9.57;;;19.00;99.90;;;;;;5076898;28;20200;-91
2023/06/03 01:47:27;;;;;;;12.23;9.45;;;19.10;99.90;;;;;;5074837;28;20202;-91
2023/06/03 01:50:00;;;;;;;13.40;8.65;;;19.30;99.90;;;;;;5073498;28;20736;-90
2023/06/03 01:52:31;;;;;;;11.70;8.05;;;19.40;99.90;;;;;;5069615;28;20262;-90
2023/06/03 01:55:09;;;;;;;13.77;8.57;;;19.50;99.90;;;;;;5054400;28;20204;-90
2023/06/03 01:57:41;;;;;;;12.50;8.55;;;19.60;99.90;;;;;;5057959;28;20204;-90
2023/06/03 02:00:13;;;;;;;15.05;8.77;;;19.60;99.90;;;;;;5076166;28;20206;-91
2023/06/03 02:02:50;;;;;;;12.18;7.70;;;19.80;99.90;;;;;;5086718;28;20241;-90
2023/06/03 02:05:24;;;;;;;13.30;8.32;;;19.80;99.90;;;;;;5087431;28;20200;-91
2023/06/03 02:07:56;;;;;;;13.75;8.10;;;19.90;99.90;;;;;;5082646;28;20302;-90
2023/06/03 02:10:30;;;;;;;13.75;8.82;;;20.10;99.90;;;;;;5071222;28;20207;-90
2023/06/03 02:13:02;;;;;;;9.88;7.18;;;20.10;99.90;;;;;;5054753;28;20231;-90
2023/06/03 02:15:33;;;;;;;11.85;7.10;;;20.30;99.90;;;;;;5053630;28;20196;-91
2023/06/03 02:18:04;;;;;;;9.20;6.55;;;20.40;99.90;;;;;;5073104;28;20205;-90
2023/06/03 02:20:36;;;;;;;10.45;6.32;;;20.60;99.90;;;;;;5075224;28;20210;-91
2023/06/03 02:23:10;;;;;;;8.05;5.50;;;20.70;99.90;;;;;;5073918;28;20219;-91
2023/06/03 02:25:44;;;;;;;12.38;6.35;;;20.70;99.90;;;;;;5073452;28;20197;-91
2023/06/03 02:28:22;;;;;;;12.07;7.13;;;20.80;99.90;;;;;;5077039;28;20196;-90
2023/06/03 02:30:55;;;;;;;13.70;6.78;;;20.90;99.90;;;;;;5076259;28;20238;-90
2023/06/03 02:33:27;;;;;;;10.70;6.80;;;20.90;99.90;;;;;;5076522;28;20566;-90
2023/06/03 02:35:58;;;;;;;9.32;6.00;;;21.00;99.90;;;;;;5076555;28;20196;-90
2023/06/03 02:38:31;;;;;;;10.35;6.88;;;21.10;99.90;;;;;;5074381;28;20223;-90
2023/06/03 02:41:07;;;;;;;8.75;6.45;;;21.10;99.90;;;;;;5075368;28;20200;-90
2023/06/03 02:43:39;;;;;;;10.95;6.30;;;21.10;99.90;;;;;;5066071;28;20314;-91
2023/06/03 02:46:13;;;;;;;8.45;6.05;;;21.20;99.90;;;;;;5056260;28;20204;-90
2023/06/03 02:48:46;;;;;;;8.63;5.95;;;21.30;99.90;;;;;;5055684;28;20199;-91
2023/06/03 02:51:20;;;;;;;9.52;5.97;;;21.40;99.90;;;;;;5055776;28;20204;-91
2023/06/03 02:53:52;;;;;;;9.32;6.20;;;21.50;99.90;;;;;;5056079;28;20250;-90
2023/06/03 02:56:26;;;;;;;10.00;6.03;;;21.50;99.90;;;;;;5056894;28;20197;-90
2023/06/03 02:58:58;;;;;;;10.43;5.70;;;21.60;99.90;;;;;;5057893;28;20262;-90
2023/06/03 03:01:31;;;;;;;8.68;5.85;;;21.70;99.90;;;;;;5076785;28;20295;-91
2023/06/03 03:04:06;;;;;;;7.10;5.28;;;21.80;99.90;;;;;;5075372;28;20206;-90
2023/06/03 03:06:40;;;;;;;9.35;5.13;;;21.90;99.90;;;;;;5073795;28;20196;-91
2023/06/03 03:09:12;;;;;;;9.55;5.40;;;22.00;99.90;;;;;;5075771;28;20191;-90
2023/06/03 03:11:48;;;;;;;8.10;4.97;;;22.00;99.90;;;;;;5071762;28;20192;-90
2023/06/03 03:14:20;;;;;;;8.70;5.25;;;21.90;99.90;;;;;;5055376;28;20224;-91
2023/06/03 03:16:52;;;;;;;9.20;5.43;;;22.00;99.90;;;;;;5057490;28;20188;-92
2023/06/03 03:19:23;;;;;;;7.60;4.47;;;22.00;99.90;;;;;;5081881;28;20207;-91
2023/06/03 03:21:55;;;;;;;8.00;5.35;;;22.10;99.90;;;;;;5087338;28;20204;-88
2023/06/03 03:24:33;;;;;;;6.57;4.70;;;22.00;99.90;;;;;;5067181;28;20217;-91
2023/06/03 03:27:10;;;;;;;7.93;4.30;;;21.90;99.90;;;;;;5055795;28;20228;-91
2023/06/03 03:29:46;;;;;;;10.48;5.47;;;22.00;99.90;;;;;;5055210;28;20239;-91
2023/06/03 03:32:20;;;;;;;7.90;5.47;;;22.00;99.90;;;;;;5055543;28;20287;-90
2023/06/03 03:35:00;;;;;;;9.00;5.45;;;22.00;99.90;;;;;;5067325;28;20204;-91
2023/06/03 03:37:32;;;;;;;8.63;5.60;;;22.10;99.90;;;;;;5089432;28;20195;-91
2023/06/03 03:40:04;;;;;;;8.68;5.85;;;21.90;99.90;;;;;;5075180;28;20204;-91
2023/06/03 03:42:41;;;;;;;8.48;5.47;;;21.90;99.90;;;;;;5075285;28;20200;-90
2023/06/03 03:45:19;;;;;;;7.82;5.45;;;21.90;99.90;;;;;;5074663;28;20204;-90
2023/06/03 03:47:53;;;;;;;6.97;5.03;;;21.90;99.90;;;;;;5075220;28;20192;-90
2023/06/03 03:50:53;;;;;;;6.65;4.50;;;21.90;99.90;;;;;;5074398;28;20200;-90
2023/06/03 03:53:25;;;;;;;9.75;4.95;;;21.80;99.90;;;;;;5054916;28;20221;-89
2023/06/03 03:55:57;;;;;;;7.88;5.10;;;21.90;99.90;;;;;;5054475;28;20196;-90
2023/06/03 03:58:32;;;;;;;8.88;4.70;;;22.00;99.90;;;;;;5061295;28;20200;-89
2023/06/03 04:01:04;;;;;;;8.52;5.30;;;21.90;99.90;;;;;;5074411;28;20195;-91
2023/06/03 04:03:43;;;;;;;6.68;4.57;;;21.90;99.90;;;;;;5073737;28;20184;-90
2023/06/03 04:06:17;;;;;;;5.32;4.22;;;22.00;99.90;;;;;;5074165;28;20203;-90
2023/06/03 04:08:49;;;;;;;6.00;4.07;;;21.90;99.90;;;;;;5073479;28;20216;-91
2023/06/03 04:11:26;;;;;;;8.52;4.65;;;21.90;99.90;;;;;;5075102;28;20202;-91
2023/06/03 04:14:06;;;;;;;7.15;4.78;;;21.90;99.90;;;;;;5074218;28;20246;-90
2023/06/03 04:16:58;;;;;;;10.77;5.03;;;21.90;99.90;;;;;;5077539;28;20188;-91
2023/06/03 04:19:36;;;;;;;6.82;4.97;;;22.00;99.90;;;;;;5074403;28;20207;-90
2023/06/03 04:22:09;;;;;;;6.80;4.53;;;22.00;99.90;;;;;;5074408;28;20265;-90
2023/06/03 04:24:44;;;;;;;8.02;4.97;;;22.00;99.90;;;;;;5074346;28;20209;-90
2023/06/03 04:27:17;;;;;;;7.22;4.45;;;21.90;99.90;;;;;;5073869;28;20184;-90
2023/06/03 04:29:54;;;;;;;11.93;4.95;;;21.90;99.90;;;;;;5073917;28;20595;-91
2023/06/03 04:32:26;;;;;;;7.70;4.60;;;21.90;99.90;;;;;;5073686;28;20207;-90
2023/06/03 04:34:59;;;;;;;5.55;4.50;;;22.00;99.90;;;;;;5075210;28;20253;-90
2023/06/03 04:37:30;;;;;;;6.43;4.57;;;22.00;99.90;;;;;;5095215;28;20206;-91
2023/06/03 04:40:02;;;;;;;6.75;4.57;;;22.10;99.90;;;;;;5083291;28;20280;-91
2023/06/03 04:42:33;;;;;;;5.82;4.57;;;22.10;99.90;;;;;;5075373;28;20200;-91
2023/06/03 04:45:08;;;;;;;5.18;4.25;;;22.10;99.90;;;;;;5074398;28;20200;-91
2023/06/03 04:47:41;;;;;;;6.40;4.53;;;22.10;99.90;;;;;;5074254;28;20209;-91
2023/06/03 04:50:17;;;;;;;6.75;4.63;;;22.20;99.90;;;;;;5073985;28;20218;-89
2023/06/03 04:52:49;;;;;;;7.75;4.70;;;22.20;99.90;;;;;;5074549;28;20203;-91
2023/06/03 04:55:21;;;;;;;7.35;4.30;;;22.30;99.90;;;;;;5080654;28;20267;-88
2023/06/03 04:57:56;;;;;;;7.53;4.95;;;22.30;99.90;;;;;;5088124;28;20196;-90
2023/06/03 05:00:29;;;;;;;9.23;5.82;;;22.20;99.90;;;;;;5083691;28;20558;-90
2023/06/03 05:03:01;;;;;;;9.80;6.13;;;22.20;99.90;;;;;;5084818;28;20263;-89
2023/06/03 05:05:33;;;;;;;10.18;6.10;;;22.20;99.90;;;;;;5074767;28;20223;-91
2023/06/03 05:08:04;;;;;;;10.10;5.95;;;22.10;99.90;;;;;;5074029;28;20234;-92
2023/06/03 05:10:36;;;;;;;8.25;5.50;;;22.10;99.90;;;;;;5073989;28;20578;-90
2023/06/03 05:13:08;;;;;;;7.53;4.80;;;22.10;99.90;;;;;;5074237;28;20579;-90
2023/06/03 05:15:46;;;;;;;6.40;3.85;;;22.10;99.90;;;;;;5077094;28;20196;-90
2023/06/03 05:18:18;;;;;;;6.53;3.30;;;22.00;99.90;;;;;;5086620;28;20188;-90
2023/06/03 05:20:51;;;;;;;6.75;3.22;;;22.00;99.90;;;;;;5097014;28;20193;-90
2023/06/03 05:23:22;;;;;;;5.90;3.63;;;21.90;99.90;;;;;;5096863;28;20196;-91
2023/06/03 05:25:53;;;;;;;6.18;3.45;;;21.90;99.90;;;;;;5096622;28;20188;-89
2023/06/03 05:28:25;;;;;;;8.13;3.50;;;21.90;99.90;;;;;;5090031;28;20188;-91
2023/06/03 05:31:02;;;;;;;7.45;3.53;;;21.80;99.90;;;;;;5086756;28;20227;-91
2023/06/03 05:33:35;;;;;;;7.35;3.40;;;21.80;99.90;;;;;;5085807;28;20235;-91
2023/06/03 05:36:07;;;;;;;6.95;3.22;;;21.80;99.90;;;;;;5083283;28;20233;-91
2023/06/03 05:38:39;;;;;;;7.90;3.08;;;21.80;99.90;;;;;;5075237;28;20229;-90
2023/06/03 05:41:12;;;;;;;6.43;3.55;;;21.70;99.90;;;;;;5072906;28;20192;-90
2023/06/03 05:43:45;;;;;;;7.28;3.28;;;21.70;99.90;;;;;;5060661;28;20204;-91
2023/06/03 05:46:22;;;;;;;6.03;3.38;;;21.70;99.90;;;;;;5056097;28;20211;-90
2023/06/03 05:48:55;;;;;;;5.30;3.28;;;21.60;99.90;;;;;;5055285;28;20671;-91
2023/06/03 05:51:27;;;;;;;5.22;3.38;;;21.50;99.90;;;;;;5072848;28;20204;-91
2023/06/03 05:53:59;;;;;;;6.50;3.75;;;21.50;99.90;;;;;;5075511;28;20227;-91
2023/06/03 05:56:32;;;;;;;7.43;3.35;;;21.50;99.90;;;;;;5076283;28;20671;-91
2023/06/03 05:59:03;;;;;;;5.80;3.50;;;21.40;99.90;;;;;;5075690;28;20200;-91
2023/06/03 06:01:39;;;;;;;9.63;3.70;;;21.30;99.90;;;;;;5074497;28;20774;-90
2023/06/03 06:04:11;;;;;;;6.43;3.95;;;21.20;99.90;;;;;;5078258;28;20196;-90
2023/06/03 06:06:43;;;;;;;4.35;3.65;;;21.20;99.90;;;;;;5079669;28;20287;-91
2023/06/03 06:09:14;;;;;;;7.47;3.83;;;21.10;99.90;;;;;;5081376;28;20200;-90
2023/06/03 06:11:47;;;;;;;8.27;3.75;;;21.00;99.90;;;;;;5079501;28;20200;-91
2023/06/03 06:14:19;;;;;;;8.02;3.97;;;20.90;99.90;;;;;;5084169;28;20279;-89
2023/06/03 06:17:00;;;;;;;7.00;4.10;;;20.90;99.90;;;;;;5086314;28;20619;-90
2023/06/03 06:19:32;;;;;;;9.65;4.25;;;20.90;99.90;;;;;;5079803;28;20226;-90
2023/06/03 06:22:06;;;;;;;7.05;4.20;;;20.80;99.90;;;;;;5083609;28;20271;-90
2023/06/03 06:24:39;;;;;;;7.10;3.90;;;20.70;99.90;;;;;;5085091;28;20211;-91
2023/06/03 06:27:11;;;;;;;8.80;4.15;;;20.70;99.90;;;;;;5082777;28;20214;-92
2023/06/03 06:29:42;;;;;;;7.35;4.13;;;20.60;99.90;;;;;;5079950;28;20228;-90
2023/06/03 06:32:26;;;;;;;8.57;4.10;;;20.60;99.90;;;;;;5080123;28;20223;-90
2023/06/03 06:34:57;;;;;;;9.23;4.47;;;20.70;99.90;;;;;;5078637;28;20219;-90
2023/06/03 06:37:29;;;;;;;8.70;4.53;;;20.60;99.90;;;;;;5080079;28;20215;-90
2023/06/03 06:40:02;;;;;;;8.75;4.28;;;20.60;99.90;;;;;;5079247;28;20366;-90
2023/06/03 06:42:35;;;;;;;8.35;4.70;;;20.60;99.90;;;;;;5079780;28;20214;-91
2023/06/03 06:45:14;;;;;;;10.40;4.90;;;20.50;99.90;;;;;;5077771;28;20654;-91
2023/06/03 06:47:51;;;;;;;7.95;4.50;;;20.50;99.90;;;;;;5076339;28;20204;-90
2023/06/03 06:50:37;;;;;;;8.65;4.70;;;20.50;99.90;;;;;;5075873;28;20199;-91
2023/06/03 06:53:08;;;;;;;9.73;5.00;;;20.50;99.90;;;;;;5076594;28;20261;-90
2023/06/03 06:55:43;;;;;;;11.52;5.55;;;20.50;99.90;;;;;;5074621;28;20226;-90
2023/06/03 06:58:16;;;;;;;10.75;5.10;;;20.40;99.90;;;;;;5076973;28;20574;-89
2023/06/03 07:00:48;;;;;;;8.63;5.10;;;20.40;99.90;;;;;;5076114;28;20282;-89
2023/06/03 07:03:24;;;;;;;13.70;5.18;;;20.40;99.90;;;;;;5076443;28;20200;-91
2023/06/03 07:05:55;;;;;;;8.85;5.38;;;20.30;99.90;;;;;;5076316;28;20199;-91
2023/06/03 07:08:30;;;;;;;7.97;4.30;;;20.30;99.90;;;;;;5080319;28;20216;-89
2023/06/03 07:11:06;;;;;;;7.28;4.50;;;20.20;99.90;;;;;;5095469;28;20213;-91
2023/06/03 07:13:37;;;;;;;8.23;4.70;;;20.20;99.90;;;;;;5085743;28;20233;-90
2023/06/03 07:16:09;;;;;;;7.43;4.75;;;20.10;99.90;;;;;;5077624;28;20219;-91
2023/06/03 07:18:44;;;;;;;10.77;4.88;;;20.10;99.90;;;;;;5075229;28;20196;-90
2023/06/03 07:21:23;;;;;;;9.50;4.50;;;20.10;99.90;;;;;;5080507;28;20200;-91
2023/06/03 07:23:53;;;;;;;8.10;4.95;;;20.00;99.90;;;;;;5077959;28;20188;-89
2023/06/03 07:26:27;;;;;;;7.25;4.78;;;20.00;99.90;;;;;;5077070;28;20211;-90
2023/06/03 07:28:58;;;;;;;8.88;4.53;;;20.00;99.90;;;;;;5079137;28;20254;-91
2023/06/03 07:31:35;;;;;;;6.10;3.75;;;20.00;99.90;;;;;;5083474;28;20228;-90
2023/06/03 07:34:10;;;;;;;8.55;3.85;;;19.90;99.90;;;;;;5076905;28;20216;-91
2023/06/03 07:36:41;;;;;;;7.18;3.92;;;19.80;99.90;;;;;;5059611;28;20180;-90
2023/06/03 07:39:18;;;;;;;6.68;3.45;;;19.80;99.90;;;;;;5059458;28;20203;-91
2023/06/03 07:41:53;;;;;;;6.43;3.33;;;19.80;99.90;;;;;;5068758;28;20219;-90
2023/06/03 07:44:40;;;;;;;6.95;3.28;;;19.80;99.90;;;;;;5077002;28;20261;-91
2023/06/03 07:47:14;;;;;;;6.38;3.65;;;19.80;99.90;;;;;;5077552;28;20191;-91
2023/06/03 07:49:51;;;;;;;6.40;3.25;;;19.70;99.90;;;;;;5076718;28;20207;-92
2023/06/03 07:52:23;;;;;;;6.18;3.25;;;19.80;99.90;;;;;;5077217;28;20195;-92
2023/06/03 07:54:55;;;;;;;8.57;3.75;;;19.80;99.90;;;;;;5077099;28;20224;-91
2023/06/03 07:57:29;;;;;;;4.68;2.97;;;19.80;99.90;;;;;;5077372;28;20207;-92
2023/06/03 08:00:01;;;;;;;6.10;2.92;;;19.80;99.90;;;;;;5077059;28;20253;-91
2023/06/03 08:02:33;;;;;;;5.30;2.45;;;19.80;99.90;;;;;;5076565;28;20218;-92
2023/06/03 08:05:07;;;;;;;6.38;2.70;;;19.80;99.90;;;;;;5074686;28;20200;-91
2023/06/03 08:07:40;;;;;;;4.93;2.55;;;19.80;99.90;;;;;;5074899;28;20235;-91
2023/06/03 08:10:25;;;;;;;4.65;2.40;;;19.80;99.90;;;;;;5074518;28;20616;-91
2023/06/03 08:12:56;;;;;;;6.07;2.60;;;19.80;99.90;;;;;;5074948;28;20201;-90
2023/06/03 08:15:31;;;;;;;6.38;2.70;;;19.80;99.90;;;;;;5074078;28;20227;-90
2023/06/03 08:18:03;;;;;;;4.20;2.13;;;19.80;99.90;;;;;;5074089;28;20678;-91
2023/06/03 08:20:37;;;;;;;5.43;2.35;;;19.80;99.90;;;;;;5073966;28;20204;-90
2023/06/03 08:23:08;;;;;;;7.18;2.95;;;19.80;99.90;;;;;;5074176;28;20207;-90
2023/06/03 08:25:40;;;;;;;4.40;2.53;;;19.80;99.90;;;;;;5073368;28;20214;-91
2023/06/03 08:28:13;;;;;;;6.10;2.80;;;19.80;99.90;;;;;;5081724;28;20200;-91
2023/06/03 08:30:45;;;;;;;4.82;2.58;;;19.80;99.90;;;;;;5083680;28;20238;-90
2023/06/03 08:33:17;;;;;;;8.57;3.50;;;19.90;99.90;;;;;;5076311;28;20204;-90
2023/06/03 08:35:51;;;;;;;7.28;3.38;;;19.90;99.90;;;;;;5077606;28;20601;-91
2023/06/03 08:38:22;;;;;;;7.15;3.72;;;19.90;99.90;;;;;;5076593;28;20207;-91
2023/06/03 08:40:56;;;;;;;5.22;2.65;;;19.90;99.90;;;;;;5076873;28;20210;-91
2023/06/03 08:43:37;;;;;;;7.35;2.55;;;19.90;99.90;;;;;;5076280;28;20195;-90
2023/06/03 08:46:16;;;;;;;5.60;2.63;;;19.90;99.90;;;;;;5058820;28;20207;-90
2023/06/03 08:48:54;;;;;;;5.55;2.50;;;19.90;99.90;;;;;;5062247;28;20207;-90
2023/06/03 08:51:29;;;;;;;5.85;2.30;;;19.90;99.90;;;;;;5061396;28;20200;-91
2023/06/03 08:54:01;;;;;;;4.70;2.35;;;19.90;99.90;;;;;;5067695;28;20263;-91
2023/06/03 08:56:33;;;;;;;5.63;2.88;;;19.90;99.90;;;;;;5057450;28;20203;-90
2023/06/03 08:59:09;;;;;;;6.50;2.35;;;20.00;99.90;;;;;;5076455;28;20291;-91
2023/06/03 09:01:40;;;;;;;7.68;2.70;;;20.00;99.90;;;;;;5073662;28;20215;-90
2023/06/03 09:04:14;;;;;;;5.15;2.35;;;20.00;99.90;;;;;;5073865;28;20188;-91
2023/06/03 09:06:51;;;;;;;5.65;2.60;;;20.00;99.90;;;;;;5075617;28;20186;-91
2023/06/03 09:09:25;;;;;;;6.18;2.50;;;19.90;99.90;;;;;;5079949;28;20226;-90
2023/06/03 09:11:58;;;;;;;6.20;2.90;;;19.90;99.90;;;;;;5082221;28;20223;-91
2023/06/03 09:14:34;;;;;;;6.32;3.30;;;19.90;99.90;;;;;;5082011;28;20232;-91
2023/06/03 09:17:08;;;;;;;7.15;3.20;;;19.90;99.90;;;;;;5082881;28;20222;-90
2023/06/03 09:19:40;;;;;;;7.22;3.03;;;19.90;99.90;;;;;;5080544;28;20204;-91
2023/06/03 09:22:17;;;;;;;4.63;2.50;;;19.90;99.90;;;;;;5079141;28;20207;-91
2023/06/03 09:24:49;;;;;;;6.85;2.50;;;19.90;99.90;;;;;;5078689;28;20199;-90
2023/06/03 09:27:21;;;;;;;6.70;2.53;;;19.90;99.90;;;;;;5079952;28;20295;-90
2023/06/03 09:29:53;;;;;;;6.88;2.67;;;19.90;99.90;;;;;;5079810;28;20231;-91
2023/06/03 09:32:25;;;;;;;8.00;2.85;;;19.90;99.90;;;;;;5082818;28;20203;-91
2023/06/03 09:34:58;;;;;;;3.78;2.38;;;19.90;99.90;;;;;;5088462;28;20686;-91
2023/06/03 09:37:40;;;;;;;6.10;2.65;;;19.90;99.90;;;;;;5092180;28;20662;-91
2023/06/03 09:40:29;;;;;;;8.68;2.85;;;19.80;99.90;;;;;;5096004;28;20185;-84
2023/06/03 09:43:04;;;;;;;8.80;3.00;;;19.80;99.90;;;;;;5099443;28;20259;-92
2023/06/03 09:45:35;;;;;;;8.02;2.83;;;19.80;99.90;;;;;;5085880;28;20205;-90
2023/06/03 09:48:08;;;;;;;9.98;3.13;;;19.80;99.90;;;;;;5087263;28;20655;-91
2023/06/03 09:50:52;;;;;;;7.10;2.92;;;19.80;99.90;;;;;;5079680;28;20189;-92
2023/06/03 09:53:30;;;;;;;5.90;3.10;;;19.80;99.90;;;;;;5064453;28;20291;-90
2023/06/03 09:56:02;;;;;;;6.72;2.88;;;19.80;99.90;;;;;;5063339;28;20709;-91
2023/06/03 09:58:38;;;;;;;7.05;2.83;;;19.70;99.90;;;;;;5064483;28;20197;-90
2023/06/03 10:01:08;;;;;;;8.57;2.80;;;19.70;99.90;;;;;;5064317;28;20196;-91
2023/06/03 10:03:41;;;;;;;7.45;2.78;;;19.70;99.90;;;;;;5066038;28;20204;-90
2023/06/03 10:06:23;;;;;;;8.50;3.33;;;19.80;99.90;;;;;;5079357;28;20241;-90
2023/06/03 10:09:01;;;;;;;9.23;3.13;;;19.70;99.90;;;;;;5090285;28;20621;-90
2023/06/03 10:11:52;;;;;;;6.95;3.05;;;19.70;99.90;;;;;;5085674;28;20684;-92
2023/06/03 10:14:26;;;;;;;10.80;2.70;;;19.70;99.90;;;;;;5096671;28;20200;-90
2023/06/03 10:17:11;;;;;;;7.70;2.70;;;19.70;99.90;;;;;;5087558;28;20195;-91
2023/06/03 10:19:52;;;;;;;8.52;3.17;;;19.70;99.90;;;;;;5084118;28;20215;-91
2023/06/03 10:22:24;;;;;;;9.98;2.97;;;19.70;99.90;;;;;;5087834;28;20191;-87
2023/06/03 10:25:01;;;;;;;6.80;2.67;;;19.70;99.90;;;;;;5091771;28;20207;-88
2023/06/03 10:27:34;;;;;;;6.20;2.83;;;19.70;99.90;;;;;;5091111;28;20235;-88
2023/06/03 10:30:06;;;;;;;8.27;2.53;;;19.70;99.90;;;;;;5089734;28;20306;-89
2023/06/03 10:32:38;;;;;;;7.13;3.03;;;19.70;99.90;;;;;;5081619;28;20295;-89
2023/06/03 10:35:10;;;;;;;8.40;3.28;;;19.70;99.90;;;;;;5083353;28;20214;-91
2023/06/03 10:37:44;;;;;;;9.48;3.67;;;19.70;99.90;;;;;;5084525;28;20200;-90
2023/06/03 10:40:22;;;;;;;11.52;3.85;;;19.70;99.90;;;;;;5084537;28;20196;-90
2023/06/03 10:42:56;;;;;;;9.30;3.50;;;19.70;99.90;;;;;;5084751;28;20202;-90
2023/06/03 10:45:31;;;;;;;7.30;3.13;;;19.70;99.90;;;;;;5083346;28;20203;-91
2023/06/03 10:48:05;;;;;;;9.38;3.35;;;19.70;99.90;;;;;;5080449;28;20283;-90
2023/06/03 10:50:51;;;;;;;8.02;3.40;;;19.70;99.90;;;;;;5077196;28;20196;-91
2023/06/03 10:53:32;;;;;;;9.90;3.35;;;19.70;99.90;;;;;;5076024;28;20200;-89
2023/06/03 10:56:22;;;;;;;6.07;3.40;;;19.60;99.90;;;;;;5075601;28;20234;-89
2023/06/03 10:59:02;;;;;;;11.40;3.40;;;19.60;99.90;;;;;;5076461;28;20211;-91
2023/06/03 11:02:02;;;;;;;12.18;3.33;;;19.60;99.90;;;;;;5077182;28;20211;-90
2023/06/03 11:04:42;;;;;;;8.98;2.85;;;19.70;99.90;;;;;;5084180;28;20287;-91
2023/06/03 11:07:48;;;;;;;10.82;3.08;;;19.60;99.90;;;;;;5080732;28;20705;-92
2023/06/03 11:10:45;;;;;;;6.93;3.00;;;19.60;99.90;;;;;;5081171;28;20200;-91
2023/06/03 11:16:34;;;;;;;7.45;2.78;;;19.60;99.90;;;;;;5094776;28;20218;-92
2023/06/03 11:22:37;;;;;;;8.15;3.20;;;19.50;99.90;;;;;;5089227;28;20200;-90
2023/06/03 11:25:32;;;;;;;9.00;2.78;;;19.50;99.90;;;;;;5087419;28;20204;-91
2023/06/03 11:28:36;;;;;;;7.32;2.50;;;19.40;99.90;;;;;;5090392;28;20208;-91
2023/06/03 11:31:31;;;;;;;7.20;2.35;;;19.50;99.90;;;;;;5084783;28;20231;-89
2023/06/03 11:34:37;;;;;;;7.35;2.20;;;19.50;99.90;;;;;;5091563;28;20210;-90
2023/06/03 11:38:05;;;;;;;6.53;2.20;;;19.50;99.90;;;;;;5087617;28;20200;-90
2023/06/03 11:40:51;;;;;;;7.43;2.28;;;19.40;99.90;;;;;;5086898;28;20203;-90
2023/06/03 11:43:26;;;;;;;6.88;2.08;;;19.40;99.90;;;;;;5091118;28;20260;-91
2023/06/03 11:46:18;;;;;;;5.82;1.90;;;19.40;99.90;;;;;;5085119;28;20180;-90
2023/06/03 11:48:50;;;;;;;9.27;2.17;;;19.40;99.90;;;;;;5084159;28;20283;-90
2023/06/03 11:51:31;;;;;;;8.32;2.00;;;19.40;99.90;;;;;;5082081;28;20232;-89
2023/06/03 11:54:20;;;;;;;8.95;2.38;;;19.40;99.90;;;;;;5088014;28;20213;-91
2023/06/03 11:56:52;;;;;;;9.32;2.15;;;19.40;99.90;;;;;;5086310;28;20220;-90
2023/06/03 11:59:28;;;;;;;9.68;2.30;;;19.40;99.90;;;;;;5082881;28;20196;-91
2023/06/03 12:02:09;;;;;;;8.00;2.00;;;19.40;99.90;;;;;;5083603;28;20264;-90
2023/06/03 12:07:31;;;;;;;4.95;1.70;;;19.40;99.90;;;;;;5082103;28;20242;-90
2023/06/03 12:10:03;;;;;;;8.32;2.13;;;19.40;99.90;;;;;;5096764;28;20180;-90
2023/06/03 12:12:39;;;;;;;8.63;2.10;;;19.40;99.90;;;;;;5091259;28;20192;-92
2023/06/03 12:15:12;;;;;;;7.22;2.70;;;19.40;99.90;;;;;;5082785;28;20230;-90
2023/06/03 12:17:52;;;;;;;7.05;2.42;;;19.40;99.90;;;;;;5082487;28;20279;-91
2023/06/03 12:20:32;;;;;;;8.63;2.25;;;19.40;99.90;;;;;;5084486;28;20204;-90
2023/06/03 12:23:08;;;;;;;8.70;2.30;;;19.40;99.90;;;;;;5071148;28;20261;-90
2023/06/03 12:25:42;;;;;;;6.03;2.28;;;19.30;99.90;;;;;;5070131;28;20264;-90
2023/06/03 12:28:28;;;;;;;9.25;2.35;;;19.40;99.90;;;;;;5064041;28;20203;-90
2023/06/03 12:31:15;;;;;;;6.78;1.85;;;19.40;99.90;;;;;;5064371;28;20306;-90
2023/06/03 12:34:01;;;;;;;9.32;2.10;;;19.40;99.90;;;;;;5063017;28;20283;-91
2023/06/03 12:36:48;;;;;;;8.55;2.15;;;19.40;99.90;;;;;;5064273;28;20666;-90
2023/06/03 12:39:23;;;;;;;5.45;1.92;;;19.40;99.90;;;;;;5076793;28;20226;-91
2023/06/03 12:42:07;;;;;;;10.15;2.15;;;19.40;99.90;;;;;;5084815;28;20188;-90
2023/06/03 12:44:49;;;;;;;9.35;2.22;;;19.40;99.90;;;;;;5082976;28;20213;-91
2023/06/03 12:47:22;;;;;;;7.88;2.35;;;19.30;99.90;;;;;;5083336;28;20305;-91
2023/06/03 12:50:18;;;;;;;9.20;2.15;;;19.30;99.90;;;;;;5086098;28;20222;-92
2023/06/03 12:52:50;;;;;;;7.65;1.80;;;19.30;99.90;;;;;;5085412;28;20196;-90
2023/06/03 12:55:25;;;;;;;12.63;2.70;;;19.30;99.90;;;;;;5084728;28;20216;-90
2023/06/03 12:58:03;;;;;;;10.60;2.30;;;19.30;99.90;;;;;;5080704;28;20196;-90
2023/06/03 13:00:39;;;;;;;10.63;2.15;;;19.30;99.90;;;;;;5080317;28;20552;-90
2023/06/03 13:03:12;;;;;;;7.47;2.20;;;19.30;99.90;;;;;;5081322;28;20199;-89
2023/06/03 13:05:51;;;;;;;8.32;1.80;;;19.30;99.90;;;;;;5081378;28;20317;-90
2023/06/03 13:08:23;;;;;;;8.20;2.10;;;19.20;99.90;;;;;;5079966;28;20284;-90
2023/06/03 13:11:00;;;;;;;7.03;2.20;;;19.20;99.90;;;;;;5079637;28;20199;-90
2023/06/03 13:13:37;;;;;;;6.75;2.00;;;19.20;99.90;;;;;;5074385;28;20211;-91
2023/06/03 13:16:11;;;;;;;10.75;2.63;;;19.20;99.90;;;;;;5062827;28;20223;-90
2023/06/03 13:18:44;;;;;;;7.13;2.22;;;19.20;99.90;;;;;;5061545;28;20212;-91
2023/06/03 13:21:21;;;;;;;8.20;2.55;;;19.20;99.90;;;;;;5071586;28;20253;-89
2023/06/03 13:23:58;;;;;;;6.53;1.90;;;19.20;99.90;;;;;;5071951;28;20230;-90
2023/06/03 13:26:28;;;;;;;10.23;2.65;;;19.20;99.90;;;;;;5072903;28;20215;-90
2023/06/03 13:29:00;;;;;;;5.22;2.00;;;19.20;99.90;;;;;;5077096;28;20203;-88
2023/06/03 13:31:32;;;;;;;7.10;2.03;;;19.20;99.90;;;;;;5092496;28;20231;-89
2023/06/03 13:34:04;;;;;;;11.10;2.70;;;19.20;99.90;;;;;;5086069;28;20204;-88
2023/06/03 13:36:40;;;;;;;7.45;2.60;;;19.20;99.90;;;;;;5092818;28;20223;-88
2023/06/03 13:39:11;;;;;;;8.43;2.13;;;19.20;99.90;;;;;;5078925;28;20263;-87